^^
Station Historical Data
Daily Summary for November 10, 2017 Units:  Metric    English   Both
« Previous Day
Next Day »
Daily Weekly Monthly Yearly Custom
  High: Low: Average:
Temperature: 32.9 °C 12.3 °C 20.3 °C
Dew Point: 5.1 °C -10.2 °C -0.6 °C
Humidity: 51% 7% 30%
Wind Speed: 24.1km/h 0km/h 4.2km/h
Wind Gust: 27.4km/h - -
Wind- - SSW
Pressure: 1008.7 hPa 1003.9 hPa -
Precipitation: 0 mm    
Historical Graphs
 
 
Tabular Data for November 10, 2017
Time Temperature Dew Point Pressure Wind Wind Speed Wind Gust Humidity Rainfall Rate (Hourly) solar Conditions
00:02 18.7 °C -1.2 °C 1008.4 hPa Calm   4.8 km/h 26% 0 mm 0.0 W/m2
00:07 18.7 °C -1.2 °C 1008.4 hPa Calm     26% 0 mm 0.0 W/m2
00:12 18.6 °C -1.3 °C 1008.4 hPa Calm     26% 0 mm 0.0 W/m2
00:17 18.4 °C -0.9 °C 1008.4 hPa South 6.4 km/h 6.4 km/h 27% 0 mm 0.0 W/m2
00:22 18.5 °C -0.9 °C 1008.4 hPa South 6.4 km/h 8 km/h 27% 0 mm 0.0 W/m2
00:27 18.5 °C -0.9 °C 1008 hPa South 7.9 km/h 11.3 km/h 27% 0 mm 0.0 W/m2
00:38 18.4 °C -0.4 °C 1008 hPa South 6.4 km/h 9.7 km/h 28% 0 mm 0.0 W/m2
00:43 18.3 °C -0.5 °C 1008 hPa South 3.2 km/h 4.8 km/h 28% 0 mm 0.0 W/m2
00:48 18.1 °C -0.7 °C 1008 hPa South 4.7 km/h 4.8 km/h 28% 0 mm 0.0 W/m2
00:53 17.9 °C -0.9 °C 1008 hPa South 4.7 km/h 8 km/h 28% 0 mm 0.0 W/m2
00:58 17.7 °C -0.6 °C 1008 hPa South 4.7 km/h 6.4 km/h 29% 0 mm 0.0 W/m2
01:03 17.4 °C -0.8 °C 1008 hPa South 6.4 km/h 6.4 km/h 29% 0 mm 0.0 W/m2
01:08 17.3 °C -0.9 °C 1008 hPa South 4.7 km/h 6.4 km/h 29% 0 mm 0.0 W/m2
01:13 17.2 °C -1 °C 1008 hPa Calm     29% 0 mm 0.0 W/m2
01:19 17.2 °C -1 °C 1008 hPa Calm     29% 0 mm 0.0 W/m2
01:24 17.1 °C -1.1 °C 1008 hPa Calm     29% 0 mm 0.0 W/m2
01:29 16.9 °C -1.3 °C 1008 hPa Calm     29% 0 mm 0.0 W/m2
01:35 16.9 °C -1.3 °C 1008 hPa Calm     29% 0 mm 0.0 W/m2
01:40 16.9 °C -1.3 °C 1008 hPa Calm     29% 0 mm 0.0 W/m2
01:45 16.9 °C -1.3 °C 1007.7 hPa Calm     29% 0 mm 0.0 W/m2
01:50 16.7 °C -1.4 °C 1007.7 hPa Calm     29% 0 mm 0.0 W/m2
01:55 16.4 °C -1.7 °C 1007.7 hPa Calm     29% 0 mm 0.0 W/m2
02:05 16.1 °C -1.5 °C 1007.7 hPa Calm     30% 0 mm 0.0 W/m2
02:11 16 °C -1.6 °C 1008 hPa Calm     30% 0 mm 0.0 W/m2
02:16 15.9 °C -1.7 °C 1008 hPa Calm     30% 0 mm 0.0 W/m2
02:21 15.8 °C -1.7 °C 1007.7 hPa Calm     30% 0 mm 0.0 W/m2
02:26 15.7 °C -2.3 °C 1007.7 hPa Calm     29% 0 mm 0.0 W/m2
02:31 15.7 °C -1.8 °C 1007.7 hPa Calm     30% 0 mm 0.0 W/m2
02:37 15.7 °C -1.4 °C 1007.7 hPa Calm     31% 0 mm 0.0 W/m2
02:42 15.7 °C -0.1 °C 1007.7 hPa Calm     34% 0 mm 0.0 W/m2
02:48 15.7 °C 0.7 °C 1007.3 hPa Calm     36% 0 mm 0.0 W/m2
02:58 15.4 °C 1.1 °C 1007.7 hPa Calm     38% 0 mm 0.0 W/m2
03:03 15.3 °C 1.1 °C 1007.7 hPa Calm     38% 0 mm 0.0 W/m2
03:08 15.1 °C 0.9 °C 1007.3 hPa Calm     38% 0 mm 0.0 W/m2
03:14 15 °C 2.2 °C 1007.7 hPa Calm     42% 0 mm 0.0 W/m2
03:19 14.9 °C 1.4 °C 1007.7 hPa Calm     40% 0 mm 0.0 W/m2
03:24 14.7 °C 1.9 °C 1007.7 hPa Calm     42% 0 mm 0.0 W/m2
03:29 14.6 °C 2.5 °C 1007.7 hPa Calm     44% 0 mm 0.0 W/m2
03:34 14.5 °C 2.4 °C 1007.7 hPa Calm     44% 0 mm 0.0 W/m2
03:39 14.5 °C 2.7 °C 1007.3 hPa Calm     45% 0 mm 0.0 W/m2
03:44 14.4 °C 2.6 °C 1007.3 hPa Calm     45% 0 mm 0.0 W/m2
03:49 14.4 °C 2.6 °C 1007.3 hPa Calm     45% 0 mm 0.0 W/m2
03:54 14.6 °C 2.5 °C 1007.3 hPa Calm     44% 0 mm 0.0 W/m2
03:59 14.8 °C 2.7 °C 1007.3 hPa Calm     44% 0 mm 0.0 W/m2
04:04 14.8 °C 2.7 °C 1007.3 hPa Calm     44% 0 mm 0.0 W/m2
04:10 14.8 °C 3 °C 1007.3 hPa Calm     45% 0 mm 0.0 W/m2
04:15 14.6 °C 3.1 °C 1007.3 hPa Calm     46% 0 mm 0.0 W/m2
04:20 14.4 °C 3.2 °C 1007.3 hPa Calm     47% 0 mm 0.0 W/m2
04:25 14.2 °C 3 °C 1007.3 hPa Calm     47% 0 mm 0.0 W/m2
04:30 14.1 °C 3.3 °C 1007.3 hPa Calm     48% 0 mm 0.0 W/m2
04:35 14 °C 2.6 °C 1007.3 hPa Calm     46% 0 mm 0.0 W/m2
04:40 13.8 °C 2.7 °C 1007.3 hPa Calm     47% 0 mm 0.0 W/m2
04:45 13.6 °C 2.2 °C 1007.3 hPa Calm     46% 0 mm 0.0 W/m2
04:51 13.4 °C 2.6 °C 1007.3 hPa Calm     48% 0 mm 0.0 W/m2
04:56 13.3 °C 2.5 °C 1007.3 hPa Calm     48% 0 mm 0.0 W/m2
05:01 13.3 °C 2.5 °C 1007.3 hPa Calm     48% 0 mm 0.0 W/m2
05:06 13.4 °C 2 °C 1007.3 hPa Calm     46% 0 mm 0.0 W/m2
05:11 13.4 °C 2 °C 1007.3 hPa Calm     46% 0 mm 0.0 W/m2
05:17 13.3 °C 1.9 °C 1007.7 hPa Calm     46% 0 mm 0.0 W/m2
05:22 13.2 °C 1.8 °C 1007.7 hPa Calm     46% 0 mm 0.0 W/m2
05:27 13 °C 1.3 °C 1007.7 hPa Calm     45% 0 mm 0.0 W/m2
05:32 12.8 °C 0.8 °C 1007.7 hPa Calm     44% 0 mm 0.0 W/m2
05:37 12.6 °C 1.3 °C 1007.7 hPa Calm     46% 0 mm 0.0 W/m2
05:43 12.6 °C 1.6 °C 1007.7 hPa Calm     47% 0 mm 0.0 W/m2
05:48 12.4 °C 1.4 °C 1007.7 hPa Calm     47% 0 mm 0.0 W/m2
05:53 12.3 °C 1.9 °C 1007.7 hPa Calm     49% 0 mm 5.0 W/m2
05:59 12.3 °C 2.2 °C 1007.7 hPa Calm     50% 0 mm 7.0 W/m2
06:10 12.4 °C 2.5 °C 1008 hPa Calm     51% 0 mm 14.0 W/m2
06:19 12.7 °C 2.8 °C 1008 hPa Calm     51% 0 mm 28.0 W/m2
06:24 12.9 °C 3 °C 1008 hPa Calm     51% 0 mm 42.0 W/m2
06:36 13.8 °C 3.3 °C 1008 hPa Calm     49% 0 mm 76.0 W/m2
06:42 14.3 °C 2.8 °C 1008.4 hPa Calm     46% 0 mm 93.0 W/m2
06:53 14.9 °C 3.4 °C 1008.4 hPa Calm     46% 0 mm 130.0 W/m2
07:21 16.5 °C 4.5 °C 1008.4 hPa Calm     45% 0 mm 237.0 W/m2
07:37 16.9 °C 4.6 °C 1008.7 hPa South 4.7 km/h 8 km/h 44% 0 mm 288.0 W/m2
07:53 17.3 °C 3.2 °C 1008.7 hPa South 7.9 km/h 9.7 km/h 39% 0 mm 346.0 W/m2
08:06 18.2 °C 3.3 °C 1008.4 hPa South 7.9 km/h 11.3 km/h 37% 0 mm 399.0 W/m2
08:14 18.9 °C 1.8 °C 1008.7 hPa South 9.7 km/h 11.3 km/h 32% 0 mm 432.0 W/m2
08:27 19.8 °C 0.3 °C 1008.7 hPa South 9.7 km/h 12.9 km/h 27% 0 mm 483.0 W/m2
08:37 20.4 °C -0.3 °C 1008.7 hPa South 6.4 km/h 9.7 km/h 25% 0 mm 517.0 W/m2
08:42 20.7 °C -0.6 °C 1008.4 hPa South 13 km/h 14.5 km/h 24% 0 mm 534.0 W/m2
08:54 21 °C -0.3 °C 1008.4 hPa South 9.7 km/h 11.3 km/h 24% 0 mm 568.0 W/m2
09:28 22.1 °C 0.6 °C 1008.7 hPa South 14.3 km/h 16.1 km/h 24% 0 mm 656.0 W/m2
09:57 23.4 °C -0.8 °C 1008.7 hPa South 6.4 km/h 8 km/h 20% 0 mm 742.0 W/m2
10:06 23.8 °C -1.2 °C 1008.7 hPa Calm     19% 0 mm 770.0 W/m2
10:16 24.3 °C -1.5 °C 1008.7 hPa Calm     18% 0 mm 793.0 W/m2
10:27 24.7 °C -1.2 °C 1008.4 hPa Calm     18% 0 mm 819.0 W/m2
10:39 24.8 °C -1.9 °C 1008.4 hPa Calm     17% 0 mm 838.0 W/m2
10:53 25.9 °C -3.6 °C 1008.4 hPa Calm     14% 0 mm 868.0 W/m2
11:03 26.4 °C -4.2 °C 1008.4 hPa Calm     13% 0 mm 884.0 W/m2
11:14 26.8 °C -3.9 °C 1008 hPa Calm     13% 0 mm 902.0 W/m2
11:29 27.7 °C -5.4 °C 1008 hPa SSW 4.7 km/h 14.5 km/h 11% 0 mm 923.0 W/m2
11:55 28.4 °C -7.5 °C 1007.7 hPa SW 3.2 km/h 8 km/h 9% 0 mm 940.0 W/m2
12:09 28.9 °C -8.7 °C 1007.3 hPa Calm     8% 0 mm 947.0 W/m2
12:19 29.1 °C -10.2 °C 1007.3 hPa Calm   11.3 km/h 7% 0 mm 956.0 W/m2
12:30 29.4 °C -8.3 °C 1007 hPa Calm     8% 0 mm 956.0 W/m2
12:40 29.9 °C -7.9 °C 1007 hPa Calm     8% 0 mm 958.0 W/m2
12:49 30.4 °C -7.6 °C 1006.7 hPa WSW 7.9 km/h 20.9 km/h 8% 0 mm 956.0 W/m2
12:57 30.6 °C -9.1 °C 1006.7 hPa WSW 6.4 km/h 14.5 km/h 7% 0 mm 951.0 W/m2
13:06 30.5 °C -9.2 °C 1006.3 hPa Calm     7% 0 mm 946.0 W/m2
13:12 30.7 °C -9.1 °C 1006.3 hPa WSW 9.7 km/h 14.5 km/h 7% 0 mm 946.0 W/m2
13:18 30.9 °C -8.9 °C 1006.3 hPa WSW 4.7 km/h 12.9 km/h 7% 0 mm 939.0 W/m2
13:23 30.8 °C -7.3 °C 1006.3 hPa Calm   12.9 km/h 8% 0 mm 933.0 W/m2
13:35 31.2 °C -8.7 °C 1006 hPa Calm   4.8 km/h 7% 0 mm 930.0 W/m2
14:02 31.4 °C -6.8 °C 1006 hPa Calm     8% 0 mm 898.0 W/m2
14:17 31.8 °C -8.3 °C 1005.6 hPa WSW 7.9 km/h 16.1 km/h 7% 0 mm 872.0 W/m2
14:47 31.9 °C -8.2 °C 1005.3 hPa Calm   12.9 km/h 7% 0 mm 814.0 W/m2
15:02 32.4 °C -7.8 °C 1005 hPa SW 7.9 km/h 16.1 km/h 7% 0 mm 780.0 W/m2
15:33 32.3 °C -7.9 °C 1004.6 hPa Calm   9.7 km/h 7% 0 mm 701.0 W/m2
15:49 32.9 °C -7.5 °C 1004.6 hPa SW 9.7 km/h 12.9 km/h 7% 0 mm 657.0 W/m2
16:42 32.7 °C -7.6 °C 1004.3 hPa Calm     7% 0 mm 501.0 W/m2
17:20 32.5 °C -6 °C 1003.9 hPa Calm   8 km/h 8% 0 mm 362.0 W/m2
17:34 32.6 °C -5.9 °C 1003.9 hPa SW 9.7 km/h 14.5 km/h 8% 0 mm 308.0 W/m2
17:46 32.6 °C -7.7 °C 1003.9 hPa SSW 16.3 km/h 19.3 km/h 7% 0 mm 278.0 W/m2
18:01 32.5 °C -7.7 °C 1003.9 hPa South 13 km/h 22.5 km/h 7% 0 mm 225.0 W/m2
18:16 32.3 °C -7.9 °C 1003.9 hPa South 16.3 km/h 17.7 km/h 7% 0 mm 156.0 W/m2
18:30 31.9 °C -8.2 °C 1003.9 hPa South 13 km/h 16.1 km/h 7% 0 mm 93.0 W/m2
18:56 31 °C -7.1 °C 1004.3 hPa SSW 24.1 km/h 27.4 km/h 8% 0 mm 18.0 W/m2
19:26 28.7 °C 2.8 °C 1005 hPa SSW 17.7 km/h 24.1 km/h 19% 0 mm 0.0 W/m2
20:18 25.6 °C 3.5 °C 1006.3 hPa SSW 19.5 km/h 27.4 km/h 24% 0 mm 0.0 W/m2
20:52 24.3 °C 5.1 °C 1006.7 hPa SSW 13 km/h 22.5 km/h 29% 0 mm 0.0 W/m2
21:22 23.6 °C 4.5 °C 1006.7 hPa SSW 16.3 km/h 20.9 km/h 29% 0 mm 0.0 W/m2
21:37 23.4 °C 4.4 °C 1006.7 hPa SSW 13 km/h 17.7 km/h 29% 0 mm 0.0 W/m2
21:52 23.1 °C 4.6 °C 1007 hPa SSW 14.3 km/h 19.3 km/h 30% 0 mm 0.0 W/m2
22:08 22.8 °C 3.8 °C 1007 hPa SSW 17.7 km/h 19.3 km/h 29% 0 mm 0.0 W/m2
22:31 22.5 °C 3.6 °C 1007 hPa SSW 17.7 km/h 17.7 km/h 29% 0 mm 0.0 W/m2
22:39 22.2 °C 3.8 °C 1007 hPa SSW 14.3 km/h 20.9 km/h 30% 0 mm 0.0 W/m2
22:47 22.1 °C 3.7 °C 1007 hPa SSW 16.3 km/h 24.1 km/h 30% 0 mm 0.0 W/m2
22:58 22.1 °C 3.7 °C 1007 hPa SSW 13 km/h 19.3 km/h 30% 0 mm 0.0 W/m2
23:08 21.8 °C 3.9 °C 1007.3 hPa SSW 13 km/h 16.1 km/h 31% 0 mm 0.0 W/m2
23:17 21.6 °C 4.2 °C 1007.3 hPa SSW 13 km/h 17.7 km/h 32% 0 mm 0.0 W/m2
23:27 21.4 °C 4 °C 1007.3 hPa SW 16.3 km/h 19.3 km/h 32% 0 mm 0.0 W/m2
23:37 21.2 °C 4.7 °C 1007.3 hPa SW 14.3 km/h 19.3 km/h 34% 0 mm 0.0 W/m2
23:43 21.1 °C 4.6 °C 1007.3 hPa SW 14.3 km/h 17.7 km/h 34% 0 mm 0.0 W/m2
23:47 21 °C 5 °C 1007.3 hPa SW 14.3 km/h 17.7 km/h 35% 0 mm 0.0 W/m2
23:53 20.9 °C 4.9 °C 1007.3 hPa SW 13 km/h 14.5 km/h 35% 0 mm 0.0 W/m2
Canyon Roadhouse, Fishriver Canyon, Namibia
Compliments of Weather Underground - 2.25 mb